sensor_id;sensor_type;location;lat;lon;timestamp;temperature;humidity
71254;HTU21D;59019;47.638;18.966;2023-05-07T00:01:53;13.25;104.69
71254;HTU21D;59019;47.638;18.966;2023-05-07T00:04:19;13.24;104.48
71254;HTU21D;59019;47.638;18.966;2023-05-07T00:06:45;13.25;104.89
71254;HTU21D;59019;47.638;18.966;2023-05-07T00:09:11;13.25;104.89
71254;HTU21D;59019;47.638;18.966;2023-05-07T00:11:36;13.25;105.53
71254;HTU21D;59019;47.638;18.966;2023-05-07T00:14:02;13.25;105.81
71254;HTU21D;59019;47.638;18.966;2023-05-07T00:16:27;13.30;105.47
71254;HTU21D;59019;47.638;18.966;2023-05-07T00:18:53;13.33;103.91
71254;HTU21D;59019;47.638;18.966;2023-05-07T00:21:19;13.32;103.63
71254;HTU21D;59019;47.638;18.966;2023-05-07T00:23:44;13.35;103.28
71254;HTU21D;59019;47.638;18.966;2023-05-07T00:26:10;13.32;103.03
71254;HTU21D;59019;47.638;18.966;2023-05-07T00:28:35;13.31;103.23
71254;HTU21D;59019;47.638;18.966;2023-05-07T00:31:01;13.30;103.18
71254;HTU21D;59019;47.638;18.966;2023-05-07T00:33:26;13.30;102.86
71254;HTU21D;59019;47.638;18.966;2023-05-07T00:35:52;13.31;102.35
71254;HTU21D;59019;47.638;18.966;2023-05-07T00:38:19;13.25;102.54
71254;HTU21D;59019;47.638;18.966;2023-05-07T00:40:45;13.26;101.92
71254;HTU21D;59019;47.638;18.966;2023-05-07T00:43:11;13.24;101.60
71254;HTU21D;59019;47.638;18.966;2023-05-07T00:45:38;13.25;101.70
71254;HTU21D;59019;47.638;18.966;2023-05-07T00:48:04;13.23;101.57
71254;HTU21D;59019;47.638;18.966;2023-05-07T00:50:30;13.14;102.06
71254;HTU21D;59019;47.638;18.966;2023-05-07T00:52:56;13.17;102.30
71254;HTU21D;59019;47.638;18.966;2023-05-07T00:55:22;13.12;101.86
71254;HTU21D;59019;47.638;18.966;2023-05-07T00:57:49;13.09;102.62
71254;HTU21D;59019;47.638;18.966;2023-05-07T01:00:15;12.99;103.10
71254;HTU21D;59019;47.638;18.966;2023-05-07T01:02:41;12.94;104.12
71254;HTU21D;59019;47.638;18.966;2023-05-07T01:05:09;12.97;104.73
71254;HTU21D;59019;47.638;18.966;2023-05-07T01:07:38;12.91;105.14
71254;HTU21D;59019;47.638;18.966;2023-05-07T01:10:06;12.93;105.80
71254;HTU21D;59019;47.638;18.966;2023-05-07T01:12:32;12.86;106.67
71254;HTU21D;59019;47.638;18.966;2023-05-07T01:14:58;12.91;107.59
71254;HTU21D;59019;47.638;18.966;2023-05-07T01:17:24;12.94;107.25
71254;HTU21D;59019;47.638;18.966;2023-05-07T01:19:49;12.91;106.94
71254;HTU21D;59019;47.638;18.966;2023-05-07T01:22:31;12.94;106.80
71254;HTU21D;59019;47.638;18.966;2023-05-07T01:24:57;12.91;107.12
71254;HTU21D;59019;47.638;18.966;2023-05-07T01:27:25;12.93;107.84
71254;HTU21D;59019;47.638;18.966;2023-05-07T01:29:51;12.95;108.84
71254;HTU21D;59019;47.638;18.966;2023-05-07T01:32:21;12.94;109.26
71254;HTU21D;59019;47.638;18.966;2023-05-07T01:34:48;12.92;109.88
71254;HTU21D;59019;47.638;18.966;2023-05-07T01:37:15;12.93;109.94
71254;HTU21D;59019;47.638;18.966;2023-05-07T01:39:43;12.91;109.26
71254;HTU21D;59019;47.638;18.966;2023-05-07T01:42:08;12.91;108.03
71254;HTU21D;59019;47.638;18.966;2023-05-07T01:44:34;12.89;106.55
71254;HTU21D;59019;47.638;18.966;2023-05-07T01:47:01;12.88;106.07
71254;HTU21D;59019;47.638;18.966;2023-05-07T01:49:28;12.87;106.79
71254;HTU21D;59019;47.638;18.966;2023-05-07T01:51:53;12.86;106.46
71254;HTU21D;59019;47.638;18.966;2023-05-07T01:54:19;12.87;105.85
71254;HTU21D;59019;47.638;18.966;2023-05-07T01:56:45;12.88;105.23
71254;HTU21D;59019;47.638;18.966;2023-05-07T01:59:13;12.86;104.54
71254;HTU21D;59019;47.638;18.966;2023-05-07T02:01:38;12.84;103.85
71254;HTU21D;59019;47.638;18.966;2023-05-07T02:04:04;12.77;102.81
71254;HTU21D;59019;47.638;18.966;2023-05-07T02:06:29;12.70;102.62
71254;HTU21D;59019;47.638;18.966;2023-05-07T02:08:56;12.62;103.16
71254;HTU21D;59019;47.638;18.966;2023-05-07T02:11:21;12.53;102.76
71254;HTU21D;59019;47.638;18.966;2023-05-07T02:13:47;12.44;102.65
71254;HTU21D;59019;47.638;18.966;2023-05-07T02:16:12;12.37;102.67
71254;HTU21D;59019;47.638;18.966;2023-05-07T02:18:39;12.30;102.86
71254;HTU21D;59019;47.638;18.966;2023-05-07T02:21:05;12.19;103.35
71254;HTU21D;59019;47.638;18.966;2023-05-07T02:23:31;12.16;103.88
71254;HTU21D;59019;47.638;18.966;2023-05-07T02:25:56;12.16;103.86
71254;HTU21D;59019;47.638;18.966;2023-05-07T02:28:22;12.10;103.94
71254;HTU21D;59019;47.638;18.966;2023-05-07T02:30:47;12.07;104.66
71254;HTU21D;59019;47.638;18.966;2023-05-07T02:33:13;12.13;105.06
71254;HTU21D;59019;47.638;18.966;2023-05-07T02:35:39;12.11;104.84
71254;HTU21D;59019;47.638;18.966;2023-05-07T02:38:04;12.08;104.37
71254;HTU21D;59019;47.638;18.966;2023-05-07T02:40:30;12.10;105.10
71254;HTU21D;59019;47.638;18.966;2023-05-07T02:42:59;12.10;106.08
71254;HTU21D;59019;47.638;18.966;2023-05-07T02:45:24;12.07;106.84
71254;HTU21D;59019;47.638;18.966;2023-05-07T02:47:50;12.08;107.89
71254;HTU21D;59019;47.638;18.966;2023-05-07T02:50:15;12.11;108.10
71254;HTU21D;59019;47.638;18.966;2023-05-07T02:52:41;12.06;108.94
71254;HTU21D;59019;47.638;18.966;2023-05-07T02:55:07;11.98;112.98
71254;HTU21D;59019;47.638;18.966;2023-05-07T02:57:33;12.07;112.40
71254;HTU21D;59019;47.638;18.966;2023-05-07T02:59:58;12.13;111.36
71254;HTU21D;59019;47.638;18.966;2023-05-07T03:02:24;12.17;110.39
71254;HTU21D;59019;47.638;18.966;2023-05-07T03:04:50;12.20;109.49
71254;HTU21D;59019;47.638;18.966;2023-05-07T03:07:15;12.17;108.10
71254;HTU21D;59019;47.638;18.966;2023-05-07T03:09:41;12.20;107.56
71254;HTU21D;59019;47.638;18.966;2023-05-07T03:12:07;12.21;106.85
71254;HTU21D;59019;47.638;18.966;2023-05-07T03:14:32;12.25;106.46
71254;HTU21D;59019;47.638;18.966;2023-05-07T03:16:58;12.23;105.71
71254;HTU21D;59019;47.638;18.966;2023-05-07T03:19:23;12.21;105.04
71254;HTU21D;59019;47.638;18.966;2023-05-07T03:21:49;12.18;105.16
71254;HTU21D;59019;47.638;18.966;2023-05-07T03:24:15;12.19;105.34
71254;HTU21D;59019;47.638;18.966;2023-05-07T03:26:40;12.18;105.14
71254;HTU21D;59019;47.638;18.966;2023-05-07T03:29:06;12.22;104.43
71254;HTU21D;59019;47.638;18.966;2023-05-07T03:31:31;12.20;103.92
71254;HTU21D;59019;47.638;18.966;2023-05-07T03:33:57;12.16;103.55
71254;HTU21D;59019;47.638;18.966;2023-05-07T03:36:23;12.13;103.93
71254;HTU21D;59019;47.638;18.966;2023-05-07T03:38:50;12.12;103.62
71254;HTU21D;59019;47.638;18.966;2023-05-07T03:41:15;12.04;103.54
71254;HTU21D;59019;47.638;18.966;2023-05-07T03:43:41;12.04;103.64
71254;HTU21D;59019;47.638;18.966;2023-05-07T03:46:08;11.96;105.30
71254;HTU21D;59019;47.638;18.966;2023-05-07T03:48:34;11.93;108.88
71254;HTU21D;59019;47.638;18.966;2023-05-07T03:50:59;12.04;110.13
71254;HTU21D;59019;47.638;18.966;2023-05-07T03:53:25;12.06;111.57
71254;HTU21D;59019;47.638;18.966;2023-05-07T03:55:50;12.07;112.16
71254;HTU21D;59019;47.638;18.966;2023-05-07T03:58:16;12.12;111.84
71254;HTU21D;59019;47.638;18.966;2023-05-07T04:00:42;12.19;112.50
71254;HTU21D;59019;47.638;18.966;2023-05-07T04:03:08;12.21;111.32
71254;HTU21D;59019;47.638;18.966;2023-05-07T04:05:33;12.25;110.54
71254;HTU21D;59019;47.638;18.966;2023-05-07T04:08:00;12.32;109.07
71254;HTU21D;59019;47.638;18.966;2023-05-07T04:10:25;12.34;107.47
71254;HTU21D;59019;47.638;18.966;2023-05-07T04:12:51;12.35;106.58
71254;HTU21D;59019;47.638;18.966;2023-05-07T04:15:16;12.38;106.27
71254;HTU21D;59019;47.638;18.966;2023-05-07T04:17:42;12.42;105.61
71254;HTU21D;59019;47.638;18.966;2023-05-07T04:20:14;12.43;104.85
71254;HTU21D;59019;47.638;18.966;2023-05-07T04:22:40;12.44;104.04
71254;HTU21D;59019;47.638;18.966;2023-05-07T04:25:06;12.45;103.85
71254;HTU21D;59019;47.638;18.966;2023-05-07T04:27:34;12.51;103.92
71254;HTU21D;59019;47.638;18.966;2023-05-07T04:30:00;12.60;103.92
71254;HTU21D;59019;47.638;18.966;2023-05-07T04:32:26;12.69;104.17
71254;HTU21D;59019;47.638;18.966;2023-05-07T04:34:52;12.85;104.63
71254;HTU21D;59019;47.638;18.966;2023-05-07T04:37:17;13.02;104.89
71254;HTU21D;59019;47.638;18.966;2023-05-07T04:39:43;13.29;106.02
71254;HTU21D;59019;47.638;18.966;2023-05-07T04:42:08;13.63;107.60
71254;HTU21D;59019;47.638;18.966;2023-05-07T04:44:34;13.89;107.01
71254;HTU21D;59019;47.638;18.966;2023-05-07T04:47:00;14.11;105.27
71254;HTU21D;59019;47.638;18.966;2023-05-07T04:49:26;14.42;103.46
71254;HTU21D;59019;47.638;18.966;2023-05-07T04:51:52;14.68;99.81
71254;HTU21D;59019;47.638;18.966;2023-05-07T04:54:17;14.79;98.48
71254;HTU21D;59019;47.638;18.966;2023-05-07T04:56:43;14.85;96.49
71254;HTU21D;59019;47.638;18.966;2023-05-07T04:59:08;14.99;96.13
71254;HTU21D;59019;47.638;18.966;2023-05-07T05:01:34;15.32;96.61
71254;HTU21D;59019;47.638;18.966;2023-05-07T05:04:00;15.65;96.11
71254;HTU21D;59019;47.638;18.966;2023-05-07T05:06:25;16.00;95.31
71254;HTU21D;59019;47.638;18.966;2023-05-07T05:08:51;16.45;94.84
71254;HTU21D;59019;47.638;18.966;2023-05-07T05:11:17;16.96;94.31
71254;HTU21D;59019;47.638;18.966;2023-05-07T05:13:42;17.34;92.15
71254;HTU21D;59019;47.638;18.966;2023-05-07T05:16:08;17.62;90.87
71254;HTU21D;59019;47.638;18.966;2023-05-07T05:18:34;17.91;89.74
71254;HTU21D;59019;47.638;18.966;2023-05-07T05:21:00;18.02;88.57
71254;HTU21D;59019;47.638;18.966;2023-05-07T05:23:25;18.00;87.67
71254;HTU21D;59019;47.638;18.966;2023-05-07T05:25:55;18.15;88.47
71254;HTU21D;59019;47.638;18.966;2023-05-07T05:28:21;18.40;88.31
71254;HTU21D;59019;47.638;18.966;2023-05-07T05:30:47;18.58;87.48
71254;HTU21D;59019;47.638;18.966;2023-05-07T05:33:12;18.83;86.63
71254;HTU21D;59019;47.638;18.966;2023-05-07T05:35:38;19.16;85.32
71254;HTU21D;59019;47.638;18.966;2023-05-07T05:38:03;19.45;84.25
71254;HTU21D;59019;47.638;18.966;2023-05-07T05:40:29;19.67;82.29
71254;HTU21D;59019;47.638;18.966;2023-05-07T05:42:54;20.02;83.21
71254;HTU21D;59019;47.638;18.966;2023-05-07T05:45:20;20.47;82.55
71254;HTU21D;59019;47.638;18.966;2023-05-07T05:47:45;20.72;81.46
71254;HTU21D;59019;47.638;18.966;2023-05-07T05:50:11;20.89;78.53
71254;HTU21D;59019;47.638;18.966;2023-05-07T05:52:37;20.99;77.93
71254;HTU21D;59019;47.638;18.966;2023-05-07T05:55:03;20.95;76.90
71254;HTU21D;59019;47.638;18.966;2023-05-07T05:57:29;20.46;78.61
71254;HTU21D;59019;47.638;18.966;2023-05-07T05:59:54;20.70;79.61
71254;HTU21D;59019;47.638;18.966;2023-05-07T06:02:20;20.92;78.13
71254;HTU21D;59019;47.638;18.966;2023-05-07T06:04:45;21.19;76.73
71254;HTU21D;59019;47.638;18.966;2023-05-07T06:07:11;21.45;77.44
71254;HTU21D;59019;47.638;18.966;2023-05-07T06:09:37;21.81;76.47
71254;HTU21D;59019;47.638;18.966;2023-05-07T06:12:02;22.11;74.24
71254;HTU21D;59019;47.638;18.966;2023-05-07T06:14:28;22.36;72.53
71254;HTU21D;59019;47.638;18.966;2023-05-07T06:16:53;22.49;73.36
71254;HTU21D;59019;47.638;18.966;2023-05-07T06:19:19;22.69;71.90
71254;HTU21D;59019;47.638;18.966;2023-05-07T06:21:48;22.80;71.55
71254;HTU21D;59019;47.638;18.966;2023-05-07T06:24:14;23.05;70.22
71254;HTU21D;59019;47.638;18.966;2023-05-07T06:26:39;23.31;69.68
71254;HTU21D;59019;47.638;18.966;2023-05-07T06:29:06;23.51;67.62
71254;HTU21D;59019;47.638;18.966;2023-05-07T06:31:31;23.79;65.52
71254;HTU21D;59019;47.638;18.966;2023-05-07T06:33:59;24.28;66.59
71254;HTU21D;59019;47.638;18.966;2023-05-07T06:36:27;24.56;65.52
71254;HTU21D;59019;47.638;18.966;2023-05-07T06:38:53;24.75;65.28
71254;HTU21D;59019;47.638;18.966;2023-05-07T06:41:18;24.95;64.52
71254;HTU21D;59019;47.638;18.966;2023-05-07T06:43:44;24.87;63.54
71254;HTU21D;59019;47.638;18.966;2023-05-07T06:46:09;24.69;63.82
71254;HTU21D;59019;47.638;18.966;2023-05-07T06:48:35;24.53;64.59
71254;HTU21D;59019;47.638;18.966;2023-05-07T06:51:00;24.63;65.11
71254;HTU21D;59019;47.638;18.966;2023-05-07T06:53:26;24.79;64.34
71254;HTU21D;59019;47.638;18.966;2023-05-07T06:55:53;24.79;64.18
71254;HTU21D;59019;47.638;18.966;2023-05-07T06:58:19;24.73;64.40
71254;HTU21D;59019;47.638;18.966;2023-05-07T07:00:44;24.92;64.40
71254;HTU21D;59019;47.638;18.966;2023-05-07T07:03:11;25.27;64.40
71254;HTU21D;59019;47.638;18.966;2023-05-07T07:05:36;25.23;63.40
71254;HTU21D;59019;47.638;18.966;2023-05-07T07:08:02;25.10;62.23
71254;HTU21D;59019;47.638;18.966;2023-05-07T07:10:27;24.87;62.70
71254;HTU21D;59019;47.638;18.966;2023-05-07T07:12:53;24.83;64.05
71254;HTU21D;59019;47.638;18.966;2023-05-07T07:15:19;25.01;64.23
71254;HTU21D;59019;47.638;18.966;2023-05-07T07:17:46;25.33;62.05
71254;HTU21D;59019;47.638;18.966;2023-05-07T07:20:11;25.65;62.50
71254;HTU21D;59019;47.638;18.966;2023-05-07T07:22:37;25.69;61.83
71254;HTU21D;59019;47.638;18.966;2023-05-07T07:25:03;25.57;62.42
71254;HTU21D;59019;47.638;18.966;2023-05-07T07:27:28;25.51;62.34
71254;HTU21D;59019;47.638;18.966;2023-05-07T07:29:54;25.23;61.33
71254;HTU21D;59019;47.638;18.966;2023-05-07T07:32:19;24.89;62.14
71254;HTU21D;59019;47.638;18.966;2023-05-07T07:34:45;24.66;62.28
71254;HTU21D;59019;47.638;18.966;2023-05-07T07:37:10;24.65;63.26
71254;HTU21D;59019;47.638;18.966;2023-05-07T07:39:36;24.78;62.74
71254;HTU21D;59019;47.638;18.966;2023-05-07T07:42:03;24.82;63.19
71254;HTU21D;59019;47.638;18.966;2023-05-07T07:44:28;24.44;64.32
71254;HTU21D;59019;47.638;18.966;2023-05-07T07:46:54;24.54;62.85
71254;HTU21D;59019;47.638;18.966;2023-05-07T07:49:19;24.66;63.29
71254;HTU21D;59019;47.638;18.966;2023-05-07T07:51:45;24.50;63.96
71254;HTU21D;59019;47.638;18.966;2023-05-07T07:54:10;24.45;64.24
71254;HTU21D;59019;47.638;18.966;2023-05-07T07:56:36;24.34;66.62
71254;HTU21D;59019;47.638;18.966;2023-05-07T07:59:02;23.97;68.01
71254;HTU21D;59019;47.638;18.966;2023-05-07T08:01:30;23.68;69.23
71254;HTU21D;59019;47.638;18.966;2023-05-07T08:03:55;23.21;70.19
71254;HTU21D;59019;47.638;18.966;2023-05-07T08:06:24;22.90;71.50
71254;HTU21D;59019;47.638;18.966;2023-05-07T08:08:49;22.37;72.99
71254;HTU21D;59019;47.638;18.966;2023-05-07T08:11:14;22.26;73.90
71254;HTU21D;59019;47.638;18.966;2023-05-07T08:13:40;22.24;73.55
71254;HTU21D;59019;47.638;18.966;2023-05-07T08:16:06;21.64;75.76
71254;HTU21D;59019;47.638;18.966;2023-05-07T08:18:31;21.72;75.88
71254;HTU21D;59019;47.638;18.966;2023-05-07T08:20:57;21.46;76.40
71254;HTU21D;59019;47.638;18.966;2023-05-07T08:23:22;21.38;76.58
71254;HTU21D;59019;47.638;18.966;2023-05-07T08:25:49;21.31;76.89
71254;HTU21D;59019;47.638;18.966;2023-05-07T08:28:14;21.64;77.04
71254;HTU21D;59019;47.638;18.966;2023-05-07T08:30:40;21.50;77.79
71254;HTU21D;59019;47.638;18.966;2023-05-07T08:33:06;21.25;78.35
71254;HTU21D;59019;47.638;18.966;2023-05-07T08:35:31;21.11;78.59
71254;HTU21D;59019;47.638;18.966;2023-05-07T08:37:57;21.23;77.96
71254;HTU21D;59019;47.638;18.966;2023-05-07T08:40:25;21.63;77.76
71254;HTU21D;59019;47.638;18.966;2023-05-07T08:42:52;21.87;77.82
71254;HTU21D;59019;47.638;18.966;2023-05-07T08:45:19;22.02;76.37
71254;HTU21D;59019;47.638;18.966;2023-05-07T08:47:48;22.42;75.57
71254;HTU21D;59019;47.638;18.966;2023-05-07T08:50:15;22.66;74.98
71254;HTU21D;59019;47.638;18.966;2023-05-07T08:52:41;22.41;74.57
71254;HTU21D;59019;47.638;18.966;2023-05-07T08:55:07;21.91;76.50
71254;HTU21D;59019;47.638;18.966;2023-05-07T08:57:33;22.16;75.60
71254;HTU21D;59019;47.638;18.966;2023-05-07T08:59:59;22.07;75.67
71254;HTU21D;59019;47.638;18.966;2023-05-07T09:02:24;21.87;76.67
71254;HTU21D;59019;47.638;18.966;2023-05-07T09:04:50;22.21;76.29
71254;HTU21D;59019;47.638;18.966;2023-05-07T09:07:16;22.26;75.72
71254;HTU21D;59019;47.638;18.966;2023-05-07T09:09:44;22.86;75.14
71254;HTU21D;59019;47.638;18.966;2023-05-07T09:12:09;23.49;73.04
71254;HTU21D;59019;47.638;18.966;2023-05-07T09:14:35;23.64;72.07
71254;HTU21D;59019;47.638;18.966;2023-05-07T09:17:01;24.04;70.10
71254;HTU21D;59019;47.638;18.966;2023-05-07T09:19:27;24.54;70.02
71254;HTU21D;59019;47.638;18.966;2023-05-07T09:22:00;24.46;69.50
71254;HTU21D;59019;47.638;18.966;2023-05-07T09:24:26;24.95;68.17
71254;HTU21D;59019;47.638;18.966;2023-05-07T09:26:54;25.52;66.19
71254;HTU21D;59019;47.638;18.966;2023-05-07T09:29:20;25.98;64.81
71254;HTU21D;59019;47.638;18.966;2023-05-07T09:31:49;26.28;66.00
71254;HTU21D;59019;47.638;18.966;2023-05-07T09:34:15;26.47;61.54
71254;HTU21D;59019;47.638;18.966;2023-05-07T09:36:41;26.93;60.05
71254;HTU21D;59019;47.638;18.966;2023-05-07T09:39:07;26.28;61.97
71254;HTU21D;59019;47.638;18.966;2023-05-07T09:41:33;26.48;62.68
71254;HTU21D;59019;47.638;18.966;2023-05-07T09:44:09;26.95;58.87
71254;HTU21D;59019;47.638;18.966;2023-05-07T09:46:36;27.42;57.82
71254;HTU21D;59019;47.638;18.966;2023-05-07T09:49:06;26.73;58.29
71254;HTU21D;59019;47.638;18.966;2023-05-07T09:51:41;26.66;59.81
71254;HTU21D;59019;47.638;18.966;2023-05-07T09:54:09;25.91;60.35
71254;HTU21D;59019;47.638;18.966;2023-05-07T09:56:35;25.88;60.51
71254;HTU21D;59019;47.638;18.966;2023-05-07T09:59:03;25.36;61.46
71254;HTU21D;59019;47.638;18.966;2023-05-07T10:01:31;25.49;59.79
71254;HTU21D;59019;47.638;18.966;2023-05-07T10:03:57;25.52;59.80
71254;HTU21D;59019;47.638;18.966;2023-05-07T10:06:24;25.25;60.20
71254;HTU21D;59019;47.638;18.966;2023-05-07T10:08:52;25.19;62.23
71254;HTU21D;59019;47.638;18.966;2023-05-07T10:11:17;24.75;62.41
71254;HTU21D;59019;47.638;18.966;2023-05-07T10:13:43;24.58;63.81
71254;HTU21D;59019;47.638;18.966;2023-05-07T10:16:10;24.92;62.63
71254;HTU21D;59019;47.638;18.966;2023-05-07T10:18:36;25.24;61.18
71254;HTU21D;59019;47.638;18.966;2023-05-07T10:21:18;25.21;59.13
71254;HTU21D;59019;47.638;18.966;2023-05-07T10:23:57;25.15;58.89
71254;HTU21D;59019;47.638;18.966;2023-05-07T10:26:23;24.47;61.35
71254;HTU21D;59019;47.638;18.966;2023-05-07T10:29:03;24.45;62.42
71254;HTU21D;59019;47.638;18.966;2023-05-07T10:34:11;23.68;62.92
71254;HTU21D;59019;47.638;18.966;2023-05-07T10:36:38;23.49;63.24
71254;HTU21D;59019;47.638;18.966;2023-05-07T10:39:05;22.85;64.67
71254;HTU21D;59019;47.638;18.966;2023-05-07T10:41:31;22.94;63.66
71254;HTU21D;59019;47.638;18.966;2023-05-07T10:43:57;22.75;63.72
71254;HTU21D;59019;47.638;18.966;2023-05-07T10:46:22;22.77;64.47
71254;HTU21D;59019;47.638;18.966;2023-05-07T10:49:08;22.96;65.64
71254;HTU21D;59019;47.638;18.966;2023-05-07T10:51:35;23.73;66.33
71254;HTU21D;59019;47.638;18.966;2023-05-07T10:56:40;25.25;62.57
71254;HTU21D;59019;47.638;18.966;2023-05-07T10:59:31;26.06;62.31
71254;HTU21D;59019;47.638;18.966;2023-05-07T11:02:00;27.00;58.22
71254;HTU21D;59019;47.638;18.966;2023-05-07T11:04:31;27.37;57.16
71254;HTU21D;59019;47.638;18.966;2023-05-07T11:10:04;27.71;54.67
71254;HTU21D;59019;47.638;18.966;2023-05-07T11:17:32;27.99;53.72
71254;HTU21D;59019;47.638;18.966;2023-05-07T11:20:01;26.49;55.82
71254;HTU21D;59019;47.638;18.966;2023-05-07T11:24:56;27.44;55.36
71254;HTU21D;59019;47.638;18.966;2023-05-07T11:27:29;27.76;54.83
71254;HTU21D;59019;47.638;18.966;2023-05-07T11:29:55;27.00;55.29
71254;HTU21D;59019;47.638;18.966;2023-05-07T11:32:25;27.82;54.30
71254;HTU21D;59019;47.638;18.966;2023-05-07T11:35:00;27.79;53.39
71254;HTU21D;59019;47.638;18.966;2023-05-07T11:37:27;28.01;53.04
71254;HTU21D;59019;47.638;18.966;2023-05-07T11:40:09;27.57;53.59
71254;HTU21D;59019;47.638;18.966;2023-05-07T11:42:40;27.78;53.48
71254;HTU21D;59019;47.638;18.966;2023-05-07T11:45:08;26.73;52.88
71254;HTU21D;59019;47.638;18.966;2023-05-07T11:47:35;26.85;54.50
71254;HTU21D;59019;47.638;18.966;2023-05-07T11:50:05;27.14;54.75
71254;HTU21D;59019;47.638;18.966;2023-05-07T11:52:31;27.28;53.85
71254;HTU21D;59019;47.638;18.966;2023-05-07T11:54:58;27.12;56.39
71254;HTU21D;59019;47.638;18.966;2023-05-07T11:57:26;27.20;55.18
71254;HTU21D;59019;47.638;18.966;2023-05-07T11:59:55;27.74;53.91
71254;HTU21D;59019;47.638;18.966;2023-05-07T12:02:20;28.38;52.53
71254;HTU21D;59019;47.638;18.966;2023-05-07T12:04:46;28.59;53.01
71254;HTU21D;59019;47.638;18.966;2023-05-07T12:07:15;28.77;50.95
71254;HTU21D;59019;47.638;18.966;2023-05-07T12:09:41;29.07;50.37
71254;HTU21D;59019;47.638;18.966;2023-05-07T12:12:07;28.99;49.90
71254;HTU21D;59019;47.638;18.966;2023-05-07T12:14:32;28.84;50.85
71254;HTU21D;59019;47.638;18.966;2023-05-07T12:17:01;28.26;49.10
71254;HTU21D;59019;47.638;18.966;2023-05-07T12:19:29;27.38;49.37
71254;HTU21D;59019;47.638;18.966;2023-05-07T12:21:56;27.98;49.63
71254;HTU21D;59019;47.638;18.966;2023-05-07T12:24:21;28.26;49.47
71254;HTU21D;59019;47.638;18.966;2023-05-07T12:26:48;28.21;48.36
71254;HTU21D;59019;47.638;18.966;2023-05-07T12:29:14;28.40;49.49
71254;HTU21D;59019;47.638;18.966;2023-05-07T12:31:42;28.67;49.18
71254;HTU21D;59019;47.638;18.966;2023-05-07T12:34:10;27.40;50.66
71254;HTU21D;59019;47.638;18.966;2023-05-07T12:36:37;28.49;49.76
71254;HTU21D;59019;47.638;18.966;2023-05-07T12:39:05;27.63;49.41
71254;HTU21D;59019;47.638;18.966;2023-05-07T12:41:36;28.18;48.54
71254;HTU21D;59019;47.638;18.966;2023-05-07T12:44:04;28.85;47.99
71254;HTU21D;59019;47.638;18.966;2023-05-07T12:46:30;29.13;47.67
71254;HTU21D;59019;47.638;18.966;2023-05-07T12:48:56;29.53;47.33
71254;HTU21D;59019;47.638;18.966;2023-05-07T12:51:22;29.58;46.99
71254;HTU21D;59019;47.638;18.966;2023-05-07T12:53:47;29.50;46.88
71254;HTU21D;59019;47.638;18.966;2023-05-07T12:56:15;29.22;46.59
71254;HTU21D;59019;47.638;18.966;2023-05-07T12:58:41;28.56;47.11
71254;HTU21D;59019;47.638;18.966;2023-05-07T13:01:07;27.69;49.36
71254;HTU21D;59019;47.638;18.966;2023-05-07T13:03:35;28.60;49.66
71254;HTU21D;59019;47.638;18.966;2023-05-07T13:06:06;28.77;49.39
71254;HTU21D;59019;47.638;18.966;2023-05-07T13:08:37;29.23;48.44
71254;HTU21D;59019;47.638;18.966;2023-05-07T13:11:03;29.72;46.35
71254;HTU21D;59019;47.638;18.966;2023-05-07T13:13:33;29.86;46.57
71254;HTU21D;59019;47.638;18.966;2023-05-07T13:15:59;29.94;47.28
71254;HTU21D;59019;47.638;18.966;2023-05-07T13:18:26;29.87;46.92
71254;HTU21D;59019;47.638;18.966;2023-05-07T13:20:52;29.91;46.51
71254;HTU21D;59019;47.638;18.966;2023-05-07T13:23:18;29.96;46.78
71254;HTU21D;59019;47.638;18.966;2023-05-07T13:25:44;29.29;46.48
71254;HTU21D;59019;47.638;18.966;2023-05-07T13:28:10;29.66;46.85
71254;HTU21D;59019;47.638;18.966;2023-05-07T13:30:36;29.01;46.46
71254;HTU21D;59019;47.638;18.966;2023-05-07T13:33:01;28.89;46.02
71254;HTU21D;59019;47.638;18.966;2023-05-07T13:35:27;27.59;49.08
71254;HTU21D;59019;47.638;18.966;2023-05-07T13:37:53;28.02;49.54
71254;HTU21D;59019;47.638;18.966;2023-05-07T13:40:20;27.86;47.74
71254;HTU21D;59019;47.638;18.966;2023-05-07T13:42:46;26.62;49.00
71254;HTU21D;59019;47.638;18.966;2023-05-07T13:45:11;27.60;48.30
71254;HTU21D;59019;47.638;18.966;2023-05-07T13:47:42;27.47;48.21
71254;HTU21D;59019;47.638;18.966;2023-05-07T13:50:09;27.85;47.46
71254;HTU21D;59019;47.638;18.966;2023-05-07T13:52:37;27.74;46.75
71254;HTU21D;59019;47.638;18.966;2023-05-07T13:55:03;27.88;46.80
71254;HTU21D;59019;47.638;18.966;2023-05-07T13:57:29;27.72;46.60
71254;HTU21D;59019;47.638;18.966;2023-05-07T13:59:54;27.75;47.18
71254;HTU21D;59019;47.638;18.966;2023-05-07T14:02:20;27.31;48.48
71254;HTU21D;59019;47.638;18.966;2023-05-07T14:04:45;26.94;49.35
71254;HTU21D;59019;47.638;18.966;2023-05-07T14:07:11;26.84;48.71
71254;HTU21D;59019;47.638;18.966;2023-05-07T14:09:36;27.55;48.86
71254;HTU21D;59019;47.638;18.966;2023-05-07T14:12:02;27.86;48.15
71254;HTU21D;59019;47.638;18.966;2023-05-07T14:14:28;28.09;46.77
71254;HTU21D;59019;47.638;18.966;2023-05-07T14:16:53;28.15;47.04
71254;HTU21D;59019;47.638;18.966;2023-05-07T14:19:19;27.53;47.00
71254;HTU21D;59019;47.638;18.966;2023-05-07T14:21:44;27.47;47.59
71254;HTU21D;59019;47.638;18.966;2023-05-07T14:24:10;27.34;47.73
71254;HTU21D;59019;47.638;18.966;2023-05-07T14:26:35;26.84;48.71
71254;HTU21D;59019;47.638;18.966;2023-05-07T14:29:01;26.68;49.19
71254;HTU21D;59019;47.638;18.966;2023-05-07T14:31:27;26.16;50.08
71254;HTU21D;59019;47.638;18.966;2023-05-07T14:33:53;26.17;50.56
71254;HTU21D;59019;47.638;18.966;2023-05-07T14:36:19;25.78;49.74
71254;HTU21D;59019;47.638;18.966;2023-05-07T14:38:48;25.53;50.62
71254;HTU21D;59019;47.638;18.966;2023-05-07T14:41:13;25.68;51.25
71254;HTU21D;59019;47.638;18.966;2023-05-07T14:43:40;25.19;52.02
71254;HTU21D;59019;47.638;18.966;2023-05-07T14:46:05;25.30;52.54
71254;HTU21D;59019;47.638;18.966;2023-05-07T14:48:31;25.42;52.29
71254;HTU21D;59019;47.638;18.966;2023-05-07T14:50:56;25.53;52.78
71254;HTU21D;59019;47.638;18.966;2023-05-07T14:53:22;25.73;52.44
71254;HTU21D;59019;47.638;18.966;2023-05-07T14:55:48;25.59;52.75
71254;HTU21D;59019;47.638;18.966;2023-05-07T14:58:14;25.63;51.85
71254;HTU21D;59019;47.638;18.966;2023-05-07T15:00:40;25.56;51.46
71254;HTU21D;59019;47.638;18.966;2023-05-07T15:03:07;25.47;52.62
71254;HTU21D;59019;47.638;18.966;2023-05-07T15:05:33;25.28;52.35
71254;HTU21D;59019;47.638;18.966;2023-05-07T15:07:59;24.98;52.30
71254;HTU21D;59019;47.638;18.966;2023-05-07T15:10:25;25.10;53.05